Time;durP1;ratioP1;P1;durP2;ratioP2;P2;SDS_P1;SDS_P2;PMS_P1;PMS_P2;Temp;Humidity;BMP_temperature;BMP_pressure;BME280_temperature;BME280_humidity;BME280_pressure;Samples;Min_cycle;Max_cycle;Signal;HPM_P1;HPM_P2
2022/03/12 00:01:05;;;;;;;11.27;7.30;;;;;;;1.95;56.60;98310.19;5074428;28;20266;-78
2022/03/12 00:03:32;;;;;;;10.93;7.83;;;;;;;2.13;56.06;98310.47;5074130;28;20246;-78
2022/03/12 00:06:01;;;;;;;11.63;7.93;;;;;;;2.18;56.04;98311.16;5073052;28;20226;-79
2022/03/12 00:08:41;;;;;;;11.27;7.80;;;;;;;2.17;55.99;98311.22;5044073;28;20448;-78
2022/03/12 00:11:08;;;;;;;13.17;7.43;;;;;;;2.08;55.61;98322.78;5074150;28;20215;-78
2022/03/12 00:13:34;;;;;;;12.87;7.50;;;;;;;2.00;56.34;98324.81;5068475;28;20238;-78
2022/03/12 00:16:00;;;;;;;12.30;7.70;;;;;;;2.08;56.55;98317.56;5072520;28;20263;-78
2022/03/12 00:18:31;;;;;;;9.37;7.20;;;;;;;2.08;56.73;98316.75;5074108;28;20207;-78
2022/03/12 00:21:02;;;;;;;12.80;7.43;;;;;;;2.05;57.05;98327.25;5074045;28;20619;-78
2022/03/12 00:23:30;;;;;;;10.83;7.80;;;;;;;1.99;57.19;98328.31;5072705;28;20222;-77
2022/03/12 00:25:57;;;;;;;11.83;7.80;;;;;;;2.11;56.18;98327.91;5070533;28;20212;-77
2022/03/12 00:28:23;;;;;;;10.17;7.20;;;;;;;2.15;56.30;98323.44;5073562;28;20248;-77
2022/03/12 00:30:51;;;;;;;12.23;7.43;;;;;;;2.27;56.36;98326.50;5073769;28;20591;-78
2022/03/12 00:33:19;;;;;;;11.40;7.33;;;;;;;2.32;56.67;98323.75;5073916;28;20307;-77
2022/03/12 00:35:48;;;;;;;9.37;6.87;;;;;;;2.34;56.83;98330.59;5071887;28;20278;-78
2022/03/12 00:38:15;;;;;;;11.33;7.47;;;;;;;2.40;57.21;98319.13;5073888;28;20215;-78
2022/03/12 00:40:44;;;;;;;12.23;7.87;;;;;;;2.39;57.34;98327.84;5073429;28;20626;-78
2022/03/12 00:43:11;;;;;;;12.17;7.40;;;;;;;2.44;57.36;98329.38;5073609;28;20216;-77
2022/03/12 00:45:38;;;;;;;11.13;8.03;;;;;;;2.45;56.99;98325.88;5070805;28;20216;-77
2022/03/12 00:48:05;;;;;;;12.43;7.63;;;;;;;2.39;57.12;98328.69;5073226;28;20234;-78
2022/03/12 00:50:31;;;;;;;10.63;7.27;;;;;;;2.34;57.17;98327.97;5071795;28;20214;-77
2022/03/12 00:52:58;;;;;;;10.37;7.03;;;;;;;2.34;56.87;98324.53;5073436;28;20219;-77
2022/03/12 00:55:25;;;;;;;9.83;6.97;;;;;;;2.30;57.06;98329.00;5070959;28;20325;-77
2022/03/12 00:57:52;;;;;;;10.10;7.20;;;;;;;2.31;56.67;98329.84;5059719;28;20220;-78
2022/03/12 01:00:20;;;;;;;12.40;7.90;;;;;;;2.28;57.22;98325.59;5073061;28;20215;-78
2022/03/12 01:02:47;;;;;;;10.00;6.87;;;;;;;2.22;57.86;98331.03;5074976;28;20246;-79
2022/03/12 01:05:17;;;;;;;11.20;7.20;;;;;;;2.25;58.08;98325.69;5073846;28;20727;-78
2022/03/12 01:07:43;;;;;;;11.97;7.20;;;;;;;2.21;58.56;98321.47;5075673;28;20221;-78
2022/03/12 01:10:10;;;;;;;13.47;7.50;;;;;;;2.23;58.20;98318.81;5077032;28;20290;-77
2022/03/12 01:12:37;;;;;;;10.97;7.43;;;;;;;2.23;58.48;98321.44;5064105;28;20873;-77
2022/03/12 01:15:07;;;;;;;10.63;6.90;;;;;;;2.17;58.37;98332.94;5074629;28;20595;-77
2022/03/12 01:17:34;;;;;;;11.43;6.57;;;;;;;2.19;58.03;98325.91;5075278;28;20214;-77
2022/03/12 01:20:02;;;;;;;11.40;7.13;;;;;;;2.21;58.17;98318.03;5068699;28;20208;-77
2022/03/12 01:22:34;;;;;;;9.63;6.97;;;;;;;2.22;58.37;98320.59;5072908;28;20215;-77
2022/03/12 01:25:01;;;;;;;10.33;6.63;;;;;;;2.25;58.35;98325.69;5071112;28;20265;-77
2022/03/12 01:27:27;;;;;;;9.97;7.10;;;;;;;2.21;58.48;98318.88;5068974;28;20218;-76
2022/03/12 01:29:54;;;;;;;11.40;7.60;;;;;;;2.17;58.78;98322.50;5072634;28;20586;-76
2022/03/12 01:32:22;;;;;;;7.80;6.47;;;;;;;2.09;59.30;98324.50;5072513;28;20222;-77
2022/03/12 01:34:48;;;;;;;10.87;7.53;;;;;;;2.09;59.55;98313.22;5070073;28;20591;-76
2022/03/12 01:37:19;;;;;;;10.00;6.47;;;;;;;2.06;60.11;98324.59;5072582;28;20243;-76
2022/03/12 01:39:46;;;;;;;9.33;6.97;;;;;;;2.02;60.05;98323.00;5072587;28;20223;-76
2022/03/12 01:42:13;;;;;;;10.23;6.97;;;;;;;2.05;59.92;98328.13;5070817;28;20214;-78
2022/03/12 01:44:41;;;;;;;8.80;6.60;;;;;;;2.10;59.29;98325.34;5071077;28;20270;-78
2022/03/12 01:47:09;;;;;;;11.13;6.93;;;;;;;2.15;58.43;98321.69;5065702;28;20208;-78
2022/03/12 01:49:38;;;;;;;10.23;7.07;;;;;;;2.16;58.38;98331.22;5063311;28;20225;-78
2022/03/12 01:52:07;;;;;;;9.97;6.80;;;;;;;2.19;58.43;98327.63;5071967;28;20208;-78
2022/03/12 01:54:35;;;;;;;10.73;6.90;;;;;;;2.26;57.70;98331.78;5071673;28;20222;-78
2022/03/12 01:57:03;;;;;;;10.40;6.87;;;;;;;2.38;57.01;98327.00;5072042;28;20239;-78
2022/03/12 01:59:29;;;;;;;10.37;6.67;;;;;;;2.46;57.19;98324.97;5060598;28;20212;-78
2022/03/12 02:01:57;;;;;;;10.57;7.67;;;;;;;2.47;57.25;98321.47;5051934;28;20235;-77
2022/03/12 02:04:25;;;;;;;9.60;7.07;;;;;;;2.49;57.49;98317.03;5053399;28;20268;-78
2022/03/12 02:06:53;;;;;;;11.73;6.93;;;;;;;2.52;57.48;98318.69;5053048;28;20266;-77
2022/03/12 02:09:22;;;;;;;9.23;6.50;;;;;;;2.50;57.43;98321.34;5051084;28;20212;-78
2022/03/12 02:11:51;;;;;;;10.43;6.70;;;;;;;2.49;57.93;98318.78;5052074;28;20243;-78
2022/03/12 02:14:19;;;;;;;10.77;6.67;;;;;;;2.49;57.76;98319.66;5042545;28;20581;-78
2022/03/12 02:16:50;;;;;;;10.33;7.30;;;;;;;2.57;57.07;98325.44;5071466;28;20239;-78
2022/03/12 02:19:18;;;;;;;10.87;6.83;;;;;;;2.59;58.04;98325.41;5071556;28;20208;-78
2022/03/12 02:21:49;;;;;;;9.13;6.50;;;;;;;2.58;58.19;98334.16;5070281;28;20219;-78
2022/03/12 02:24:20;;;;;;;9.63;6.80;;;;;;;2.54;58.40;98322.97;5071766;28;20217;-77
2022/03/12 02:26:48;;;;;;;11.30;7.10;;;;;;;2.56;58.11;98334.19;5071585;28;20676;-78
2022/03/12 02:29:20;;;;;;;8.50;6.40;;;;;;;2.57;58.23;98325.44;5071742;28;20594;-78
2022/03/12 02:31:49;;;;;;;10.03;6.90;;;;;;;2.54;58.69;98322.97;5069985;28;20243;-78
2022/03/12 02:34:23;;;;;;;9.33;6.70;;;;;;;2.47;58.95;98321.47;5071306;28;20207;-77
2022/03/12 02:36:51;;;;;;;9.50;7.20;;;;;;;2.43;59.37;98327.69;5069048;28;20643;-77
2022/03/12 02:39:22;;;;;;;9.93;6.50;;;;;;;2.44;59.23;98326.78;5070940;28;20215;-77
2022/03/12 02:41:49;;;;;;;8.17;6.20;;;;;;;2.44;59.93;98329.38;5069610;28;20621;-77
2022/03/12 02:44:20;;;;;;;9.33;7.17;;;;;;;2.41;60.12;98337.34;5071467;28;20226;-77
2022/03/12 02:47:14;;;;;;;8.83;6.30;;;;;;;2.46;59.70;98338.00;5071449;28;20207;-77
2022/03/12 02:49:43;;;;;;;8.77;6.13;;;;;;;2.54;58.30;98341.22;5070812;28;20598;-77
2022/03/12 02:52:10;;;;;;;9.50;6.80;;;;;;;2.55;57.99;98335.09;5071409;28;20212;-78
2022/03/12 02:54:38;;;;;;;10.80;6.90;;;;;;;2.62;56.54;98336.59;5071330;28;20207;-77
2022/03/12 02:57:05;;;;;;;10.90;6.90;;;;;;;2.59;56.66;98339.31;5069988;28;20238;-77
2022/03/12 02:59:33;;;;;;;10.47;6.83;;;;;;;2.49;57.43;98350.09;5070871;28;20223;-78
2022/03/12 03:02:03;;;;;;;10.57;6.63;;;;;;;2.48;57.89;98351.00;5069275;28;20712;-77
2022/03/12 03:04:30;;;;;;;10.43;6.80;;;;;;;2.54;57.16;98354.28;5071269;28;20277;-77
2022/03/12 03:06:56;;;;;;;10.97;6.90;;;;;;;2.64;56.60;98346.97;5069905;28;20243;-77
2022/03/12 03:09:23;;;;;;;11.27;6.77;;;;;;;2.58;56.38;98347.19;5042011;28;20212;-77
2022/03/12 03:11:53;;;;;;;9.23;6.17;;;;;;;2.56;56.79;98355.06;5071060;28;20590;-78
2022/03/12 03:14:23;;;;;;;8.97;6.23;;;;;;;2.53;56.94;98347.34;5070873;28;20215;-77
2022/03/12 03:16:50;;;;;;;8.87;6.70;;;;;;;2.51;56.93;98349.13;5069534;28;20269;-78
2022/03/12 03:19:17;;;;;;;9.43;6.80;;;;;;;2.51;57.49;98353.53;5064315;28;20210;-78
2022/03/12 03:21:44;;;;;;;10.27;6.87;;;;;;;2.49;57.15;98353.56;5073045;28;20219;-78
2022/03/12 03:24:10;;;;;;;10.27;6.67;;;;;;;2.50;57.68;98363.09;5075239;28;20219;-77
2022/03/12 03:26:56;;;;;;;10.47;6.67;;;;;;;2.57;57.06;98359.38;5073242;28;20215;-77
2022/03/12 03:29:24;;;;;;;10.77;6.97;;;;;;;2.61;56.31;98363.59;5073985;28;20222;-78
2022/03/12 03:31:51;;;;;;;12.27;7.43;;;;;;;2.64;57.18;98363.47;5074549;28;20222;-77
2022/03/12 03:34:18;;;;;;;9.87;6.30;;;;;;;2.62;57.07;98367.91;5074878;28;20207;-77
2022/03/12 03:36:45;;;;;;;10.97;6.57;;;;;;;2.63;56.92;98369.59;5071937;28;20267;-77
2022/03/12 03:39:11;;;;;;;8.33;6.10;;;;;;;2.69;56.25;98373.78;5074542;28;20704;-77
2022/03/12 03:41:38;;;;;;;10.23;7.03;;;;;;;2.72;56.40;98374.50;5074877;28;20264;-78
2022/03/12 03:44:06;;;;;;;11.20;7.47;;;;;;;2.73;56.34;98381.44;5074784;28;20217;-78
2022/03/12 03:46:34;;;;;;;9.93;6.40;;;;;;;2.73;56.55;98378.81;5073034;28;20216;-78
2022/03/12 03:49:01;;;;;;;9.57;6.33;;;;;;;2.68;57.10;98378.13;5074580;28;20609;-78
2022/03/12 03:51:28;;;;;;;9.77;6.83;;;;;;;2.71;56.18;98378.03;5074150;28;20738;-78
2022/03/12 03:53:54;;;;;;;11.03;6.97;;;;;;;2.70;56.44;98376.31;5072803;28;20238;-78
2022/03/12 03:56:21;;;;;;;9.87;6.53;;;;;;;2.68;57.33;98383.34;5070935;28;20236;-78
2022/03/12 03:58:48;;;;;;;10.20;6.60;;;;;;;2.63;57.55;98390.47;5060008;28;20222;-78
2022/03/12 04:01:18;;;;;;;9.23;6.60;;;;;;;2.60;57.43;98385.38;5074092;28;20253;-78
2022/03/12 04:03:48;;;;;;;10.50;7.10;;;;;;;2.53;57.71;98386.47;5074194;28;20239;-78
2022/03/12 04:06:15;;;;;;;9.80;6.60;;;;;;;2.45;58.48;98379.81;5071527;28;20226;-78
2022/03/12 04:08:42;;;;;;;8.20;6.37;;;;;;;2.37;58.86;98382.66;5073879;28;20755;-78
2022/03/12 04:11:15;;;;;;;8.90;6.57;;;;;;;2.21;59.33;98385.81;5074162;28;20624;-78
2022/03/12 04:13:41;;;;;;;8.07;6.57;;;;;;;2.16;58.97;98385.97;5073600;28;20222;-78
2022/03/12 04:16:08;;;;;;;10.03;6.83;;;;;;;2.10;58.85;98388.78;5073131;28;20215;-78
2022/03/12 04:18:38;;;;;;;11.20;7.17;;;;;;;2.05;58.86;98395.88;5066993;28;20700;-77
2022/03/12 04:21:05;;;;;;;10.73;7.03;;;;;;;1.98;58.32;98388.31;5065186;28;20237;-77
2022/03/12 04:23:32;;;;;;;9.37;6.40;;;;;;;1.89;58.62;98391.22;5073541;28;20215;-78
2022/03/12 04:25:59;;;;;;;10.77;6.53;;;;;;;1.77;58.88;98389.81;5073024;28;20215;-77
2022/03/12 04:28:32;;;;;;;9.80;6.57;;;;;;;1.70;58.46;98384.81;5073916;28;20225;-77
2022/03/12 04:30:59;;;;;;;11.17;7.00;;;;;;;1.59;59.16;98386.94;5073522;28;20246;-77
2022/03/12 04:33:26;;;;;;;10.67;6.57;;;;;;;1.50;58.82;98385.44;5072544;28;20212;-77
2022/03/12 04:35:54;;;;;;;9.80;7.00;;;;;;;1.34;60.32;98389.38;5073261;28;20919;-77
2022/03/12 04:38:21;;;;;;;9.53;7.17;;;;;;;1.22;60.13;98384.53;5073367;28;20248;-78
2022/03/12 04:40:48;;;;;;;9.47;6.53;;;;;;;1.15;60.64;98388.19;5073360;28;20673;-78
2022/03/12 04:43:15;;;;;;;9.47;6.80;;;;;;;1.05;61.06;98396.31;5072761;28;20211;-78
2022/03/12 04:45:43;;;;;;;8.47;6.33;;;;;;;1.00;61.04;98395.56;5071711;28;20680;-77
2022/03/12 04:48:14;;;;;;;9.13;6.57;;;;;;;0.87;62.39;98407.22;5073396;28;20216;-77
2022/03/12 04:50:40;;;;;;;9.20;6.50;;;;;;;0.80;62.10;98411.72;5073176;28;20208;-77
2022/03/12 04:53:09;;;;;;;8.93;6.70;;;;;;;0.82;61.78;98403.88;5072076;28;20224;-77
2022/03/12 04:55:37;;;;;;;9.30;7.07;;;;;;;0.82;62.05;98409.06;5044368;28;20225;-77
2022/03/12 04:58:04;;;;;;;8.43;6.60;;;;;;;0.84;62.20;98420.28;5073235;28;20257;-78
2022/03/12 05:00:35;;;;;;;10.37;6.80;;;;;;;0.90;62.89;98413.19;5072985;28;20290;-79
2022/03/12 05:03:04;;;;;;;10.70;7.43;;;;;;;1.01;62.19;98411.16;5071881;28;20218;-78
2022/03/12 05:05:31;;;;;;;9.43;6.77;;;;;;;1.15;61.89;98414.22;5073068;28;20211;-78
2022/03/12 05:07:59;;;;;;;10.97;7.50;;;;;;;1.31;61.26;98420.72;5073001;28;20212;-78
2022/03/12 05:10:29;;;;;;;9.53;6.67;;;;;;;1.53;60.62;98413.97;5073018;28;20211;-79
2022/03/12 05:12:58;;;;;;;13.77;7.00;;;;;;;1.73;60.52;98419.44;5055504;28;20223;-78
2022/03/12 05:15:24;;;;;;;9.33;6.20;;;;;;;1.89;60.04;98420.72;5072771;28;20252;-77
2022/03/12 05:17:51;;;;;;;9.03;6.07;;;;;;;2.00;60.00;98423.84;5071617;28;20235;-77
2022/03/12 05:20:26;;;;;;;9.97;7.10;;;;;;;2.14;58.65;98432.09;5067265;28;20685;-78
2022/03/12 05:22:53;;;;;;;8.20;6.10;;;;;;;2.16;58.81;98438.13;5070994;28;20221;-77
2022/03/12 05:25:20;;;;;;;11.17;6.87;;;;;;;2.19;59.67;98445.84;5072880;28;20583;-77
2022/03/12 05:27:51;;;;;;;10.20;6.83;;;;;;;2.27;59.62;98437.78;5072623;28;20238;-78
2022/03/12 05:30:17;;;;;;;9.20;6.23;;;;;;;2.35;59.18;98452.28;5059868;28;20219;-78
2022/03/12 05:32:45;;;;;;;10.63;6.97;;;;;;;2.43;58.69;98445.06;5070642;28;20215;-78
2022/03/12 05:35:11;;;;;;;10.13;6.53;;;;;;;2.58;57.61;98452.38;5072711;28;20214;-77
2022/03/12 05:37:40;;;;;;;10.57;7.10;;;;;;;2.63;57.88;98453.09;5072450;28;20732;-77
2022/03/12 05:40:09;;;;;;;10.00;6.80;;;;;;;2.63;58.26;98458.31;5070984;28;20284;-76
2022/03/12 05:42:36;;;;;;;10.10;6.83;;;;;;;2.68;58.37;98464.25;5069764;28;20269;-77
2022/03/12 05:45:08;;;;;;;10.50;6.77;;;;;;;2.74;57.01;98466.66;5072035;28;20251;-76
2022/03/12 05:47:36;;;;;;;8.23;6.40;;;;;;;2.75;57.74;98470.13;5072328;28;20214;-76
2022/03/12 05:50:03;;;;;;;11.17;7.20;;;;;;;2.73;57.84;98464.94;5071893;28;20587;-76
2022/03/12 05:52:29;;;;;;;10.23;6.70;;;;;;;2.68;58.22;98464.25;5071072;28;20225;-77
2022/03/12 05:54:56;;;;;;;9.47;6.77;;;;;;;2.70;58.52;98475.47;5072307;28;20211;-76
2022/03/12 05:57:22;;;;;;;9.17;6.53;;;;;;;2.68;58.30;98474.69;5072079;28;20242;-76
2022/03/12 05:59:49;;;;;;;8.50;6.53;;;;;;;2.58;58.60;98470.66;5071772;28;20218;-77
2022/03/12 06:02:17;;;;;;;9.93;6.77;;;;;;;2.51;58.55;98468.31;5069516;28;20694;-76
2022/03/12 06:04:44;;;;;;;9.60;6.77;;;;;;;2.40;58.99;98476.44;5070421;28;20269;-76
2022/03/12 06:07:10;;;;;;;9.20;7.20;;;;;;;2.28;60.24;98476.81;5072047;28;20254;-76
2022/03/12 06:09:37;;;;;;;11.63;7.13;;;;;;;2.17;60.66;98473.72;5066024;28;20216;-75
2022/03/12 06:12:07;;;;;;;10.10;7.13;;;;;;;2.09;60.73;98475.69;5067368;28;20682;-76
2022/03/12 06:14:36;;;;;;;11.23;6.97;;;;;;;2.01;61.54;98485.50;5070511;28;20219;-75
2022/03/12 06:17:03;;;;;;;9.80;6.67;;;;;;;1.93;62.00;98479.69;5070591;28;20270;-76
2022/03/12 06:19:31;;;;;;;9.27;6.73;;;;;;;1.93;62.30;98482.28;5057074;28;20227;-77
2022/03/12 06:21:58;;;;;;;9.70;6.47;;;;;;;1.91;62.81;98484.06;5070371;28;20227;-78
2022/03/12 06:24:26;;;;;;;11.20;7.20;;;;;;;1.91;62.61;98491.88;5071773;28;20207;-78
2022/03/12 06:26:52;;;;;;;12.07;7.83;;;;;;;2.00;62.35;98486.41;5065112;28;20226;-78
2022/03/12 06:29:19;;;;;;;9.70;7.00;;;;;;;2.05;62.09;98489.75;5066346;28;20233;-78
2022/03/12 06:31:45;;;;;;;10.10;7.07;;;;;;;2.13;62.57;98486.88;5067363;28;20212;-77
2022/03/12 06:34:12;;;;;;;9.80;6.90;;;;;;;2.26;62.50;98493.44;5071297;28;20211;-77
2022/03/12 06:36:42;;;;;;;12.60;7.60;;;;;;;2.35;62.68;98488.81;5071469;28;20215;-77
2022/03/12 06:39:09;;;;;;;10.40;6.53;;;;;;;2.45;62.79;98484.16;5071414;28;20715;-77
2022/03/12 06:41:38;;;;;;;8.83;6.20;;;;;;;2.57;63.79;98499.41;5068815;28;20218;-77
2022/03/12 06:44:04;;;;;;;10.03;6.77;;;;;;;2.71;64.48;98503.28;5071677;28;20220;-77
2022/03/12 06:46:31;;;;;;;10.50;7.00;;;;;;;2.91;63.19;98506.09;5071354;28;20673;-77
2022/03/12 06:48:58;;;;;;;10.27;7.27;;;;;;;3.14;60.69;98498.34;5071647;28;20211;-77
2022/03/12 06:51:25;;;;;;;9.77;6.57;;;;;;;3.40;59.41;98500.91;5068624;28;20216;-77
2022/03/12 06:53:53;;;;;;;12.53;6.90;;;;;;;3.63;58.70;98487.03;5070089;28;20215;-77
2022/03/12 06:56:20;;;;;;;12.80;7.90;;;;;;;3.77;57.18;98496.06;5070580;28;20567;-76
2022/03/12 06:58:47;;;;;;;11.60;7.27;;;;;;;3.90;55.68;98494.72;5072725;28;20716;-75
2022/03/12 07:01:14;;;;;;;10.90;7.30;;;;;;;3.89;54.63;98495.63;5072699;28;20739;-77
2022/03/12 07:03:40;;;;;;;12.67;7.20;;;;;;;3.93;54.65;98499.84;5068103;28;20212;-76
2022/03/12 07:06:07;;;;;;;11.30;7.33;;;;;;;3.92;54.21;98494.66;5045852;28;20221;-76
2022/03/12 07:08:34;;;;;;;14.27;7.10;;;;;;;3.92;54.70;98500.72;5052092;28;20577;-76
2022/03/12 07:11:13;;;;;;;9.87;7.27;;;;;;;3.92;53.66;98500.72;5056771;28;20265;-74
2022/03/12 07:13:39;;;;;;;9.80;7.10;;;;;;;3.92;54.43;98511.19;5055676;28;20339;-77
2022/03/12 07:16:06;;;;;;;11.63;7.07;;;;;;;3.97;53.99;98514.50;5055498;28;20283;-74
2022/03/12 07:18:34;;;;;;;11.77;7.37;;;;;;;4.00;53.46;98511.78;5056232;28;20248;-75
2022/03/12 07:21:00;;;;;;;9.70;6.83;;;;;;;4.07;53.41;98505.41;5056309;28;20215;-75
2022/03/12 07:23:27;;;;;;;10.70;7.33;;;;;;;4.18;53.98;98520.69;5055413;28;20212;-74
2022/03/12 07:25:55;;;;;;;9.87;7.27;;;;;;;4.22;52.88;98512.66;5056482;28;20227;-75
2022/03/12 07:28:23;;;;;;;10.10;6.60;;;;;;;4.26;52.92;98510.78;5057281;28;20224;-73
2022/03/12 07:30:50;;;;;;;10.67;7.00;;;;;;;4.36;52.97;98510.38;5058682;28;20231;-73
2022/03/12 07:33:17;;;;;;;10.77;7.20;;;;;;;4.46;52.24;98516.13;5056491;28;20215;-73
2022/03/12 07:35:44;;;;;;;9.03;6.73;;;;;;;4.55;52.18;98515.75;5056532;28;20301;-73
2022/03/12 07:38:10;;;;;;;13.03;6.67;;;;;;;4.64;51.98;98512.78;5056512;28;20708;-73
2022/03/12 07:40:37;;;;;;;10.17;6.83;;;;;;;4.77;51.85;98520.06;5057627;28;20235;-75
2022/03/12 07:43:04;;;;;;;11.80;7.67;;;;;;;4.87;51.46;98521.41;5056984;28;20213;-73
2022/03/12 07:45:32;;;;;;;11.43;7.50;;;;;;;4.98;51.76;98523.59;5056658;28;20272;-74
2022/03/12 07:47:58;;;;;;;9.67;7.03;;;;;;;5.12;50.50;98521.28;5055962;28;20212;-73
2022/03/12 07:50:26;;;;;;;9.33;7.13;;;;;;;5.20;51.17;98513.94;5056465;28;20722;-73
2022/03/12 07:52:54;;;;;;;11.63;7.10;;;;;;;5.33;50.85;98517.75;5056804;28;20218;-73
2022/03/12 07:55:21;;;;;;;11.07;7.37;;;;;;;5.47;49.99;98515.38;5056077;28;20302;-71
2022/03/12 07:57:47;;;;;;;11.30;7.10;;;;;;;5.50;49.17;98512.63;5056740;28;20328;-72
2022/03/12 08:00:16;;;;;;;9.97;7.30;;;;;;;5.56;50.03;98520.25;5058205;28;20587;-73
2022/03/12 08:02:45;;;;;;;11.83;7.43;;;;;;;5.69;48.87;98511.75;5056739;28;20247;-72
2022/03/12 08:05:12;;;;;;;10.37;7.33;;;;;;;5.76;48.76;98505.34;5054925;28;20215;-72
2022/03/12 08:07:39;;;;;;;10.90;7.60;;;;;;;5.84;49.48;98498.00;5040994;28;20215;-73
2022/03/12 08:10:07;;;;;;;11.57;7.87;;;;;;;5.89;49.67;98509.16;5057979;28;20600;-72
2022/03/12 08:12:35;;;;;;;13.10;8.40;;;;;;;6.01;48.54;98507.75;5056356;28;20216;-72
2022/03/12 08:15:05;;;;;;;11.87;7.87;;;;;;;6.15;48.11;98502.72;5056461;28;20299;-72
2022/03/12 08:17:31;;;;;;;11.37;7.77;;;;;;;6.18;48.35;98503.41;5054421;28;20244;-73
2022/03/12 08:19:59;;;;;;;10.07;7.67;;;;;;;6.31;47.79;98501.97;5056155;28;20218;-72
2022/03/12 08:22:26;;;;;;;12.00;7.83;;;;;;;6.45;47.01;98501.28;5053701;28;20230;-73
2022/03/12 08:24:53;;;;;;;9.83;7.23;;;;;;;6.51;46.76;98501.00;5056040;28;20307;-74
2022/03/12 08:27:20;;;;;;;10.63;7.67;;;;;;;6.62;47.70;98496.97;5055979;28;20704;-72
2022/03/12 08:29:46;;;;;;;11.37;7.67;;;;;;;6.79;46.42;98504.03;5056619;28;20215;-73
2022/03/12 08:32:13;;;;;;;11.37;7.90;;;;;;;6.89;46.61;98514.00;5056191;28;20223;-74
2022/03/12 08:34:41;;;;;;;10.80;7.67;;;;;;;7.04;46.48;98507.16;5055231;28;20230;-74
2022/03/12 08:37:09;;;;;;;11.00;8.13;;;;;;;7.25;45.62;98517.47;5056145;28;20243;-73
2022/03/12 08:39:36;;;;;;;11.57;7.73;;;;;;;7.33;45.88;98513.53;5058831;28;20238;-74
2022/03/12 08:42:03;;;;;;;10.33;7.50;;;;;;;7.40;45.53;98514.91;5060387;28;20216;-75
2022/03/12 08:44:29;;;;;;;12.07;8.27;;;;;;;7.53;45.45;98517.78;5053296;28;20215;-73
2022/03/12 08:46:56;;;;;;;12.07;7.83;;;;;;;7.57;43.98;98516.69;5056377;28;20219;-74
2022/03/12 08:49:23;;;;;;;10.90;8.17;;;;;;;7.60;44.67;98514.75;5055916;28;20222;-73
2022/03/12 08:51:49;;;;;;;11.17;8.30;;;;;;;7.77;44.87;98516.53;5055316;28;20212;-76
2022/03/12 08:54:17;;;;;;;11.70;8.00;;;;;;;7.81;44.93;98512.78;5063949;28;20674;-77
2022/03/12 08:56:44;;;;;;;12.07;8.27;;;;;;;7.98;44.90;98508.38;5054117;28;20215;-74
2022/03/12 08:59:12;;;;;;;10.73;7.33;;;;;;;8.06;43.25;98518.47;5055245;28;20236;-75
2022/03/12 09:01:41;;;;;;;13.10;8.57;;;;;;;8.10;43.81;98514.75;5042273;28;20647;-73
2022/03/12 09:04:07;;;;;;;10.07;7.63;;;;;;;8.25;44.04;98512.19;5054815;28;20219;-74
2022/03/12 09:06:34;;;;;;;12.87;8.37;;;;;;;8.38;43.41;98509.75;5053918;28;20212;-75
2022/03/12 09:09:00;;;;;;;11.50;8.13;;;;;;;8.50;43.56;98503.81;5041333;28;20223;-73
2022/03/12 09:11:28;;;;;;;11.33;7.70;;;;;;;8.53;42.97;98504.47;5052452;28;20283;-69
2022/03/12 09:13:55;;;;;;;11.83;8.00;;;;;;;8.68;43.63;98514.16;5055716;28;20212;-69
2022/03/12 09:16:23;;;;;;;11.03;8.27;;;;;;;8.77;43.03;98503.13;5055871;28;20212;-67
2022/03/12 09:18:50;;;;;;;12.03;8.20;;;;;;;8.77;42.86;98508.38;5053981;28;20307;-67
2022/03/12 09:21:17;;;;;;;18.33;9.63;;;;;;;8.95;42.43;98506.50;5055709;28;20212;-69
2022/03/12 09:23:44;;;;;;;11.70;8.43;;;;;;;9.07;41.64;98505.78;5055390;28;20224;-68
2022/03/12 09:26:14;;;;;;;13.23;8.90;;;;;;;9.11;42.07;98504.69;5054688;28;20225;-70
2022/03/12 09:28:42;;;;;;;13.93;9.63;;;;;;;9.25;41.83;98510.00;5057077;28;20216;-68
2022/03/12 09:31:09;;;;;;;15.53;8.93;;;;;;;9.40;43.11;98506.47;5055530;28;20225;-68
2022/03/12 09:33:36;;;;;;;13.50;9.13;;;;;;;9.53;41.52;98502.16;5054391;28;20219;-69
2022/03/12 09:36:03;;;;;;;14.47;9.77;;;;;;;9.63;41.13;98508.59;5055298;28;20254;-68
2022/03/12 09:38:30;;;;;;;12.27;9.50;;;;;;;9.71;41.38;98514.28;5054833;28;20244;-69
2022/03/12 09:40:56;;;;;;;14.93;9.43;;;;;;;9.78;41.02;98505.91;5055150;28;20315;-71
2022/03/12 09:43:23;;;;;;;12.50;9.40;;;;;;;9.85;40.88;98506.41;5055115;28;20689;-69
2022/03/12 09:45:50;;;;;;;13.00;9.60;;;;;;;9.80;40.67;98503.19;5055235;28;20216;-71
2022/03/12 09:48:18;;;;;;;13.27;9.77;;;;;;;9.96;41.13;98510.06;5055855;28;20217;-69
2022/03/12 09:50:44;;;;;;;13.77;9.60;;;;;;;10.00;40.11;98505.44;5055703;28;20298;-70
2022/03/12 09:53:10;;;;;;;14.97;10.70;;;;;;;10.19;41.05;98500.75;5052170;28;20220;-71
2022/03/12 09:55:38;;;;;;;14.20;9.90;;;;;;;10.23;41.00;98491.72;5055464;28;20213;-70
2022/03/12 09:58:05;;;;;;;13.10;9.90;;;;;;;10.34;40.89;98499.84;5054706;28;20244;-70
2022/03/12 10:00:32;;;;;;;14.77;10.87;;;;;;;10.46;39.75;98486.69;5055626;28;20224;-69
2022/03/12 10:03:00;;;;;;;14.50;10.57;;;;;;;10.50;40.39;98487.34;5055044;28;20238;-69
2022/03/12 10:05:27;;;;;;;12.67;9.97;;;;;;;10.60;40.36;98485.81;5055077;28;20646;-69
2022/03/12 10:07:54;;;;;;;14.03;10.90;;;;;;;10.76;40.62;98482.09;5056501;28;20655;-68
2022/03/12 10:10:22;;;;;;;16.20;11.10;;;;;;;10.92;39.71;98490.75;5056848;28;20211;-68
2022/03/12 10:12:50;;;;;;;16.47;10.83;;;;;;;11.05;39.87;98488.13;5055572;28;20278;-69
2022/03/12 10:15:17;;;;;;;15.67;10.93;;;;;;;11.13;39.77;98483.22;5055691;28;20580;-70
2022/03/12 10:17:46;;;;;;;14.47;10.80;;;;;;;11.22;40.25;98485.22;5056018;28;20223;-69
2022/03/12 10:20:14;;;;;;;14.87;10.50;;;;;;;11.25;39.88;98475.28;5054265;28;20257;-70
2022/03/12 10:22:42;;;;;;;15.27;10.63;;;;;;;11.31;39.75;98479.34;5055513;28;20220;-69
2022/03/12 10:25:12;;;;;;;14.73;11.40;;;;;;;11.47;40.26;98469.41;5055456;28;20223;-69
2022/03/12 10:27:39;;;;;;;14.63;10.73;;;;;;;11.63;39.72;98475.41;5056690;28;20219;-70
2022/03/12 10:30:07;;;;;;;14.00;10.27;;;;;;;11.60;39.42;98468.50;5053909;28;20627;-69
2022/03/12 10:32:41;;;;;;;15.47;10.53;;;;;;;11.73;40.18;98471.19;5055383;28;20218;-69
2022/03/12 10:35:10;;;;;;;14.37;10.27;;;;;;;11.89;40.04;98466.50;5055113;28;20222;-68
2022/03/12 10:37:38;;;;;;;15.17;10.27;;;;;;;11.91;39.93;98467.25;5057494;28;20218;-69
2022/03/12 10:40:08;;;;;;;13.20;9.80;;;;;;;11.96;39.87;98458.03;5055192;28;20258;-70
2022/03/12 10:42:36;;;;;;;14.87;10.80;;;;;;;11.95;39.51;98456.34;5055180;28;20222;-70
2022/03/12 10:45:09;;;;;;;16.27;10.50;;;;;;;11.95;38.92;98447.56;5055235;28;20219;-70
2022/03/12 10:47:40;;;;;;;15.30;10.77;;;;;;;12.00;39.54;98453.38;5052511;28;20561;-70
2022/03/12 10:50:11;;;;;;;14.40;10.17;;;;;;;11.93;39.74;98449.47;5055073;28;20219;-70
2022/03/12 10:52:45;;;;;;;14.30;10.03;;;;;;;11.94;38.81;98440.56;5055329;28;20225;-70
2022/03/12 10:55:18;;;;;;;14.90;10.20;;;;;;;11.91;38.75;98446.06;5056294;28;20585;-70
2022/03/12 10:58:04;;;;;;;13.63;9.83;;;;;;;12.01;39.76;98444.47;5041792;28;20279;-70
2022/03/12 11:00:34;;;;;;;15.07;11.60;;;;;;;12.06;40.16;98445.88;5055044;28;20229;-70
2022/03/12 11:03:03;;;;;;;13.87;9.83;;;;;;;12.23;40.53;98450.78;5056329;28;20215;-70
2022/03/12 11:05:32;;;;;;;14.43;9.60;;;;;;;12.28;40.35;98447.84;5055307;28;20281;-70
2022/03/12 11:08:15;;;;;;;15.77;10.00;;;;;;;12.43;40.31;98441.44;5055119;28;20237;-70
2022/03/12 11:10:50;;;;;;;14.60;9.97;;;;;;;12.51;40.88;98439.94;5054978;28;20563;-70
2022/03/12 11:13:35;;;;;;;13.43;9.97;;;;;;;12.59;40.18;98434.09;5053916;28;20217;-69
2022/03/12 11:16:14;;;;;;;12.87;9.93;;;;;;;12.55;41.17;98432.59;5054991;28;20222;-69
2022/03/12 11:19:10;;;;;;;14.57;10.13;;;;;;;12.69;41.08;98428.00;5054774;28;20234;-69
2022/03/12 11:21:44;;;;;;;12.87;9.67;;;;;;;12.95;42.19;98426.09;5042974;28;20215;-69
2022/03/12 11:24:17;;;;;;;14.40;9.30;;;;;;;13.09;42.92;98431.25;5054924;28;20241;-69
2022/03/12 11:26:47;;;;;;;12.10;9.00;;;;;;;13.20;42.20;98423.34;5056950;28;20625;-70
2022/03/12 11:29:14;;;;;;;14.20;9.80;;;;;;;13.29;42.82;98417.31;5054856;28;20223;-71
2022/03/12 11:31:42;;;;;;;11.27;9.13;;;;;;;13.38;41.55;98421.94;5054499;28;20227;-70
2022/03/12 11:34:22;;;;;;;12.53;10.07;;;;;;;13.37;41.78;98420.22;5055037;28;20211;-69
2022/03/12 11:37:06;;;;;;;14.43;9.47;;;;;;;13.40;41.52;98409.41;5053033;28;20227;-70
2022/03/12 11:39:39;;;;;;;12.80;10.20;;;;;;;13.51;41.42;98402.28;5054760;28;20239;-71